Ana Sayfa
METAR-TAF:

METAR-TAF

Havaalanları :

Revelstoke, İngiliz Kolombiyası, Kanada

Enlem: 50-58N, Boylam: 118-11W, yükseklik: 443 m

Güncel hava durumu gözlemi

Rapor saat 19:00 UTC de 24 dakika önce yapıldı.
Rüzgar değişken yönden 2 kt
Sıcaklık -3°C
Nem 93%
Basınç 1027 hPa
Görüş mesafesi: 14.5 km
7000 ft yükseklikte parçalı çok bulutlu

METAR: CYRV 241900Z AUTO VRB02KT 9SM BKN070 M03/M04 A3033 RMK SLP296

Saat: 11:24 (19:24 UTC)


TAF: eksik

4.000'den fazla havaalanı için hava durumu gözlemleri ve tahminleri (METAR ve TAF raporları).

Kullanılabilir istasyonlar harita üzerinde sarı ve kırmızı noktalarla gösterilir.

İstasyonun adını görmek için fareyi noktanın üzerinde gezdirin.

Sonrasında hava gözlem ve tahminlerini görmek için tıklayın.

Haritayı değiştirmek için: yaklaştırmak için siyah artı işaretli yeşil düğmeye ve uzaklaştırmak için de eksi işaretli düğmeye hızla tıklayın; bitişik haritalar için yeşil okları kullanın.


METAR-TAF: